Toledo, OH

10:21 PM EST on December 24, 2014 (GMT -0500)
Custer | Change Station
CLOSE
Current Station
Airport
Location: Monroe,
Elevation: 617 ft
Nearby Weather Stations
Active Advisory: Wind Advisory Active Notice: Public Information Statement

Elev 617 ft 41.94 °N, 83.43 °W | Updated 6 minutes ago

Overcast
Overcast
37 °F
Feels Like 28 °F
N
16
Wind Variable Wind from West
Gusts 24 mph

Today
High -- | Low -- °F
--% Chance of Precip.
Yesterday
High -- | Low -- °F
Precip. -- in
7:59 AM 5:08 PM
Waxing Crescent, 13% visible
Pressure 29.45 in
Visibility 10.0 miles
Clouds Mostly Cloudy 1700 ft
Windchill 28 °F
Dew Point 36 °F
Humidity 93%
Rainfall 0.00 in
Snow Depth Not available.
UV 0 out of 12
Pollen .10 out of 12
Air Quality Not available.
Flu Activity Not available.
METAR KTTF 250315Z AUTO 26014G21KT 10SM BKN017 03/02 A2945 RMK AO2

More Conditions Fewer Conditions

Pressure 29.45 in
Visibility 10.0 miles
Clouds Mostly Cloudy 1700 ft
Windchill 28 °F
Dew Point 36 °F
Humidity 93%
Rainfall 0.00 in
Snow Depth Not available.
UV 0 out of 12
Pollen .10 out of 12
Air Quality Not available.
Flu Activity Not available.
METAR KTTF 250315Z AUTO 26014G21KT 10SM BKN017 03/02 A2945 RMK AO2

More Conditions Fewer Conditions

10-Day Weather Forecast

Almanac

Astronomy

Dec. 24, 2014 Rise Set
Actual Time
Civil Twilight
Nautical Twilight
Astronomical Twilight
Moon
Length of Visible Light
Length of Day
Tomorrow will be .
, % of the Moon is Illuminated

Today's Extremes

State Highs State Lows

Community

WunderPhotos

Upload Photos

1,780,221 photos uploaded!

WunderBlogs® & News

Nearby

Air Quality

  Air Quality AQ Index Pollutant
Not available.

Snow Depth

Station Depth Elevation

Earthquake Activity

City Distance Mag. Time & Date
Minimum magnitude displayed is 2.5.

Coastal Water Temperatures

Place Temperature

Nearby Weather Stations